createdAt,value
2022-08-09T00:00:53.853Z,70.59
2022-08-09T00:01:55.019Z,70.89
2022-08-09T00:02:52.801Z,70.89
2022-08-09T00:04:00.687Z,70.89
2022-08-09T00:05:03.099Z,70.79
2022-08-09T00:06:17.390Z,70.89
2022-08-09T00:06:53.746Z,71.00
2022-08-09T00:07:54.393Z,71.09
2022-08-09T00:08:53.336Z,70.93
2022-08-09T00:09:52.727Z,71.03
2022-08-09T00:10:52.698Z,71.13
2022-08-09T00:12:02.876Z,71.53
2022-08-09T00:12:53.676Z,71.64
2022-08-09T00:13:52.775Z,71.84
2022-08-09T00:14:56.831Z,71.84
2022-08-09T00:15:59.287Z,72.04
2022-08-09T00:16:53.708Z,72.14
2022-08-09T00:18:10.625Z,72.14
2022-08-09T00:18:53.937Z,72.34
2022-08-09T00:19:52.611Z,72.34
2022-08-09T00:20:52.595Z,72.45
2022-08-09T00:21:56.692Z,72.48
2022-08-09T00:22:52.567Z,72.48
2022-08-09T00:23:57.235Z,72.78
2022-08-09T00:24:53.537Z,72.89
2022-08-09T00:25:52.566Z,72.89
2022-08-09T00:26:52.535Z,72.89
2022-08-09T00:27:52.547Z,72.89
2022-08-09T00:28:53.293Z,72.99
2022-08-09T00:30:21.426Z,72.99
2022-08-09T00:30:53.477Z,72.78
2022-08-09T00:32:00.811Z,72.99
2022-08-09T00:32:53.447Z,72.99
2022-08-09T00:33:52.452Z,72.89
2022-08-09T00:34:52.957Z,72.99
2022-08-09T00:35:52.438Z,72.89
2022-08-09T00:36:52.427Z,72.89
2022-08-09T00:37:52.408Z,72.99
2022-08-09T00:38:52.378Z,72.99
2022-08-09T00:40:13.928Z,72.78
2022-08-09T00:40:53.830Z,72.78
2022-08-09T00:44:10.787Z,72.72
2022-08-09T00:44:11.477Z,72.58
2022-08-09T00:44:13.720Z,72.52
2022-08-09T00:44:53.565Z,72.72
2022-08-09T00:45:54.166Z,72.61
2022-08-09T00:46:57.278Z,72.38
2022-08-09T00:47:53.289Z,72.28
2022-08-09T00:48:56.170Z,72.17
2022-08-09T00:49:55.188Z,72.31
2022-08-09T00:50:52.587Z,72.41
2022-08-09T00:51:55.906Z,72.61
2022-08-09T00:52:52.228Z,72.72
2022-08-09T00:53:52.636Z,72.72
2022-08-09T00:54:52.198Z,72.82
2022-08-09T00:56:05.597Z,72.92
2022-08-09T00:56:53.191Z,72.92
2022-08-09T00:57:52.198Z,72.92
2022-08-09T00:58:53.178Z,73.02
2022-08-09T00:59:52.671Z,73.12
2022-08-09T01:00:52.158Z,73.12
2022-08-09T01:01:52.243Z,73.12
2022-08-09T01:02:52.098Z,73.12
2022-08-09T01:03:52.106Z,73.12
2022-08-09T01:04:52.067Z,73.12
2022-08-09T01:05:54.493Z,73.22
2022-08-09T01:06:54.429Z,73.36
2022-08-09T01:08:00.168Z,73.43
2022-08-09T01:08:53.029Z,73.43
2022-08-09T01:09:52.029Z,73.33
2022-08-09T01:10:52.000Z,73.26
2022-08-09T01:11:55.546Z,73.06
2022-08-09T01:12:52.699Z,73.46
2022-08-09T01:13:59.548Z,73.57
2022-08-09T01:14:52.975Z,73.66
2022-08-09T01:15:52.912Z,73.77
2022-08-09T01:16:51.932Z,73.77
2022-08-09T01:17:52.027Z,73.77
2022-08-09T01:19:02.514Z,73.77
2022-08-09T01:20:02.455Z,73.97
2022-08-09T01:20:52.908Z,73.97
2022-08-09T01:21:53.579Z,73.97
2022-08-09T01:22:54.649Z,74.07
2022-08-09T01:24:02.838Z,73.97
2022-08-09T01:24:52.861Z,74.07
2022-08-09T01:25:51.838Z,74.07
2022-08-09T01:26:53.506Z,74.07
2022-08-09T01:27:52.167Z,73.97
2022-08-09T01:28:51.788Z,73.80
2022-08-09T01:29:55.191Z,73.90
2022-08-09T01:30:53.284Z,74.10
2022-08-09T01:32:31.324Z,74.51
2022-08-09T01:32:52.749Z,74.62
2022-08-09T01:33:51.749Z,74.41
2022-08-09T01:34:51.719Z,74.62
2022-08-09T01:35:52.279Z,74.82
2022-08-09T01:36:52.098Z,74.71
2022-08-09T01:38:09.440Z,74.82
2022-08-09T01:38:52.669Z,74.92
2022-08-09T01:39:51.837Z,74.92
2022-08-09T01:40:53.004Z,74.82
2022-08-09T01:41:55.918Z,74.92
2022-08-09T01:42:52.631Z,75.02
2022-08-09T01:43:52.672Z,75.22
2022-08-09T01:44:51.607Z,75.02
2022-08-09T01:45:51.610Z,75.26
2022-08-09T01:46:53.111Z,75.46
2022-08-09T01:47:51.590Z,75.36
2022-08-09T01:48:51.549Z,75.46
2022-08-09T01:49:54.672Z,75.56
2022-08-09T01:50:55.055Z,75.36
2022-08-09T01:51:53.153Z,75.46
2022-08-09T01:52:51.509Z,75.26
2022-08-09T01:53:53.785Z,75.36
2022-08-09T01:54:52.568Z,75.36
2022-08-09T01:55:51.518Z,75.36
2022-08-09T01:56:52.330Z,75.26
2022-08-09T01:57:53.108Z,75.26
2022-08-09T01:58:51.482Z,75.16
2022-08-09T01:59:52.437Z,75.36
2022-08-09T02:00:51.455Z,75.36
2022-08-09T02:01:59.013Z,75.36
2022-08-09T02:02:52.389Z,75.26
2022-08-09T02:03:51.388Z,75.05
2022-08-09T02:04:51.372Z,75.16
2022-08-09T02:06:03.931Z,75.16
2022-08-09T02:06:58.477Z,74.95
2022-08-09T02:08:41.209Z,75.16
2022-08-09T02:08:58.432Z,75.16
2022-08-09T02:09:59.622Z,75.05
2022-08-09T02:10:52.379Z,75.26
2022-08-09T02:11:51.422Z,75.16
2022-08-09T02:12:51.270Z,75.16
2022-08-09T02:14:07.322Z,75.26
2022-08-09T02:14:52.251Z,75.56
2022-08-09T02:15:51.259Z,75.36
2022-08-09T02:16:59.449Z,75.36
2022-08-09T02:18:01.733Z,75.05
2022-08-09T02:18:52.207Z,75.49
2022-08-09T02:19:51.209Z,75.67
2022-08-09T02:20:51.190Z,75.26
2022-08-09T02:21:55.622Z,75.36
2022-08-09T02:22:51.264Z,75.49
2022-08-09T02:23:52.340Z,75.60
2022-08-09T02:24:51.874Z,75.56
2022-08-09T02:25:55.707Z,75.40
2022-08-09T02:26:52.109Z,75.40
2022-08-09T02:28:00.063Z,75.70
2022-08-09T02:28:52.078Z,75.80
2022-08-09T02:29:51.079Z,75.70
2022-08-09T02:30:51.744Z,75.80
2022-08-09T02:31:51.057Z,75.60
2022-08-09T02:32:51.168Z,75.40
2022-08-09T02:33:58.444Z,75.60
2022-08-09T02:34:55.977Z,75.70
2022-08-09T02:36:02.940Z,75.70
2022-08-09T02:36:52.533Z,75.49
2022-08-09T02:37:51.000Z,75.56
2022-08-09T02:38:51.883Z,75.70
2022-08-09T02:39:55.213Z,75.80
2022-08-09T02:40:51.988Z,75.60
2022-08-09T02:41:50.960Z,75.70
2022-08-09T02:42:51.074Z,75.60
2022-08-09T02:43:54.999Z,75.90
2022-08-09T02:44:50.890Z,75.90
2022-08-09T02:45:50.890Z,76.01
2022-08-09T02:46:52.292Z,75.90
2022-08-09T02:47:59.281Z,76.01
2022-08-09T02:48:51.842Z,76.01
2022-08-09T02:49:55.487Z,76.01
2022-08-09T02:50:55.828Z,76.10
2022-08-09T02:51:50.830Z,76.10
2022-08-09T02:52:55.421Z,76.31
2022-08-09T02:54:00.507Z,76.31
2022-08-09T02:54:55.026Z,76.55
2022-08-09T02:55:58.423Z,76.55
2022-08-09T02:56:53.940Z,76.86
2022-08-09T02:58:00.115Z,76.95
2022-08-09T02:58:51.719Z,77.16
2022-08-09T03:00:20.591Z,77.06
2022-08-09T03:00:57.815Z,77.36
2022-08-09T03:02:05.329Z,77.36
2022-08-09T03:02:59.835Z,77.47
2022-08-09T03:04:16.883Z,77.67
2022-08-09T03:04:51.650Z,77.87
2022-08-09T03:05:50.660Z,77.97
2022-08-09T03:06:52.100Z,78.01
2022-08-09T03:07:54.920Z,78.11
2022-08-09T03:08:50.621Z,78.31
2022-08-09T03:09:54.508Z,78.52
2022-08-09T03:10:51.591Z,78.72
2022-08-09T03:12:06.629Z,78.72
2022-08-09T03:12:52.086Z,78.82
2022-08-09T03:13:59.636Z,78.92
2022-08-09T03:14:51.546Z,78.92
2022-08-09T03:16:05.886Z,78.86
2022-08-09T03:16:51.520Z,78.86
2022-08-09T03:17:57.913Z,78.96
2022-08-09T03:18:53.029Z,78.86
2022-08-09T03:19:57.775Z,79.06
2022-08-09T03:20:51.481Z,79.16
2022-08-09T03:21:50.897Z,79.27
2022-08-09T03:22:56.856Z,79.37
2022-08-09T03:24:03.793Z,79.47
2022-08-09T03:24:52.195Z,79.77
2022-08-09T03:25:57.964Z,79.77
2022-08-09T03:26:51.413Z,79.68
2022-08-09T03:27:50.409Z,79.57
2022-08-09T03:28:55.038Z,79.68
2022-08-09T03:29:58.263Z,79.57
2022-08-09T03:30:51.371Z,79.47
2022-08-09T03:32:00.474Z,79.37
2022-08-09T03:32:51.340Z,79.37
2022-08-09T03:33:53.347Z,79.27
2022-08-09T03:34:54.071Z,79.47
2022-08-09T03:36:13.715Z,79.47
2022-08-09T03:36:58.527Z,79.37
2022-08-09T03:37:56.948Z,79.47
2022-08-09T03:38:51.273Z,79.68
2022-08-09T03:39:55.323Z,79.77
2022-08-09T03:40:51.269Z,79.81
2022-08-09T03:41:50.260Z,80.02
2022-08-09T03:42:51.231Z,80.02
2022-08-09T03:43:51.920Z,80.11
2022-08-09T03:44:51.321Z,80.02
2022-08-09T03:46:04.969Z,80.11
2022-08-09T03:46:51.190Z,80.22
2022-08-09T03:47:50.190Z,80.11
2022-08-09T03:48:51.802Z,80.22
2022-08-09T03:49:58.133Z,80.32
2022-08-09T03:50:51.143Z,80.52
2022-08-09T03:51:58.507Z,80.63
2022-08-09T03:52:51.120Z,80.73
2022-08-09T03:53:50.124Z,80.52
2022-08-09T03:54:50.975Z,80.42
2022-08-09T03:55:50.108Z,80.42
2022-08-09T03:56:50.093Z,80.42
2022-08-09T03:58:03.109Z,80.52
2022-08-09T03:58:51.074Z,80.42
2022-08-09T03:59:54.651Z,80.42
2022-08-09T04:00:51.093Z,80.52
2022-08-09T04:01:50.075Z,80.52
2022-08-09T04:02:52.663Z,80.52
2022-08-09T04:04:01.027Z,80.22
2022-08-09T04:04:51.041Z,80.11
2022-08-09T04:05:49.999Z,80.11
2022-08-09T04:06:50.065Z,80.32
2022-08-09T04:07:53.694Z,80.32
2022-08-09T04:08:50.960Z,80.22
2022-08-09T04:09:52.922Z,80.32
2022-08-09T04:10:49.922Z,80.52
2022-08-09T04:11:49.931Z,80.42
2022-08-09T04:12:50.030Z,80.32
2022-08-09T04:14:52.925Z,80.73
2022-08-09T04:15:01.750Z,80.73
2022-08-09T04:16:20.986Z,80.73
2022-08-09T04:16:50.868Z,80.83
2022-08-09T04:17:49.913Z,80.83
2022-08-09T04:18:51.071Z,80.83
2022-08-09T04:19:51.399Z,80.73
2022-08-09T04:20:51.464Z,80.63
2022-08-09T04:21:49.823Z,80.52
2022-08-09T04:22:50.245Z,80.63
2022-08-09T04:23:54.116Z,80.73
2022-08-09T04:24:50.814Z,80.52
2022-08-09T04:25:52.393Z,80.32
2022-08-09T04:26:49.768Z,80.52
2022-08-09T04:27:49.731Z,80.63
2022-08-09T04:28:49.780Z,80.73
2022-08-09T04:29:50.492Z,80.73
2022-08-09T04:30:49.720Z,80.73
2022-08-09T04:31:49.696Z,80.63
2022-08-09T04:32:49.691Z,80.52
2022-08-09T04:33:52.807Z,80.52
2022-08-09T04:34:54.087Z,80.52
2022-08-09T04:35:49.660Z,80.42
2022-08-09T04:36:50.376Z,80.52
2022-08-09T04:37:49.634Z,80.42
2022-08-09T04:38:49.631Z,80.42
2022-08-09T04:39:49.661Z,80.42
2022-08-09T04:40:56.109Z,80.38
2022-08-09T04:41:50.583Z,80.18
2022-08-09T04:42:49.591Z,80.38
2022-08-09T04:44:05.031Z,80.29
2022-08-09T04:44:50.560Z,79.98
2022-08-09T04:45:53.164Z,80.18
2022-08-09T04:46:58.495Z,80.08
2022-08-09T04:48:00.876Z,80.08
2022-08-09T04:48:57.612Z,79.98
2022-08-09T04:49:53.416Z,80.18
2022-08-09T04:50:50.237Z,80.38
2022-08-09T04:51:50.132Z,80.38
2022-08-09T04:52:49.482Z,80.38
2022-08-09T04:53:54.163Z,80.38
2022-08-09T04:54:50.450Z,80.29
2022-08-09T04:55:58.856Z,80.38
2022-08-09T04:56:50.425Z,80.38
2022-08-09T04:57:58.462Z,80.18
2022-08-09T04:58:50.829Z,80.18
2022-08-09T04:59:50.304Z,80.18
2022-08-09T05:00:49.402Z,79.94
2022-08-09T05:01:49.408Z,79.84
2022-08-09T05:02:52.706Z,79.84
2022-08-09T05:03:49.372Z,79.84
2022-08-09T05:04:55.362Z,79.63
2022-08-09T05:05:51.857Z,79.63
2022-08-09T05:06:50.574Z,79.53
2022-08-09T05:07:49.291Z,79.39
2022-08-09T05:08:49.441Z,79.29
2022-08-09T05:09:49.576Z,78.99
2022-08-09T05:10:49.269Z,78.89
2022-08-09T05:11:50.002Z,78.44
2022-08-09T05:12:49.437Z,78.24
2022-08-09T05:13:49.270Z,77.80
2022-08-09T05:14:49.243Z,77.39
2022-08-09T05:15:56.535Z,77.05
2022-08-09T05:16:59.039Z,76.34
2022-08-09T05:18:50.898Z,76.10
2022-08-09T05:18:58.643Z,75.59
2022-08-09T05:19:50.161Z,75.15
2022-08-09T05:20:50.162Z,74.65
2022-08-09T05:21:55.134Z,74.21
2022-08-09T05:23:54.103Z,74.00
2022-08-09T05:23:54.757Z,73.46
2022-08-09T05:24:50.913Z,73.25
2022-08-09T05:25:50.977Z,71.70
2022-08-09T05:26:49.208Z,71.91
2022-08-09T05:27:49.187Z,71.67
2022-08-09T05:28:49.093Z,71.97
2022-08-09T05:29:49.072Z,71.97
2022-08-09T05:30:49.150Z,71.64
2022-08-09T05:31:56.191Z,71.03
2022-08-09T05:32:53.149Z,69.68
2022-08-09T05:33:49.059Z,69.58
2022-08-09T05:34:49.065Z,69.98
2022-08-09T05:35:50.003Z,68.94
2022-08-09T05:36:48.992Z,68.84
2022-08-09T05:37:50.259Z,68.71
2022-08-09T05:38:49.024Z,69.31
2022-08-09T05:39:49.003Z,68.30
2022-08-09T05:40:50.581Z,67.06
2022-08-09T05:41:48.954Z,65.04
2022-08-09T05:42:48.981Z,61.57
2022-08-09T05:43:48.998Z,65.31
2022-08-09T05:44:50.908Z,65.68
2022-08-09T05:45:55.575Z,65.48
2022-08-09T05:46:49.911Z,64.58
2022-08-09T05:47:52.113Z,64.75
2022-08-09T05:48:48.840Z,64.04
2022-08-09T05:50:32.376Z,64.44
2022-08-09T05:50:51.210Z,64.72
2022-08-09T05:51:49.789Z,64.51
2022-08-09T05:52:53.493Z,63.81
2022-08-09T05:53:56.693Z,63.60
2022-08-09T05:54:50.599Z,63.90
2022-08-09T05:55:50.674Z,63.67
2022-08-09T05:56:54.640Z,63.87
2022-08-09T05:57:57.504Z,62.77
2022-08-09T05:58:53.726Z,63.47
2022-08-09T05:59:49.982Z,63.47
2022-08-09T06:00:49.642Z,63.04
2022-08-09T06:01:49.543Z,63.14
2022-08-09T06:02:49.510Z,62.74
2022-08-09T06:03:58.464Z,59.31
2022-08-09T06:04:49.737Z,58.58
2022-08-09T06:05:57.319Z,60.49
2022-08-09T06:06:50.350Z,61.10
2022-08-09T06:08:04.936Z,59.59
2022-08-09T06:08:52.497Z,58.75
2022-08-09T06:10:02.364Z,59.16
2022-08-09T06:10:49.739Z,61.17
2022-08-09T06:11:57.068Z,61.47
2022-08-09T06:12:50.434Z,61.37
2022-08-09T06:13:49.562Z,60.87
2022-08-09T06:14:49.064Z,61.27
2022-08-09T06:15:51.106Z,61.37
2022-08-09T06:16:52.524Z,60.67
2022-08-09T06:17:48.514Z,61.44
2022-08-09T06:18:48.983Z,60.44
2022-08-09T06:19:49.224Z,61.14
2022-08-09T06:20:54.328Z,61.14
2022-08-09T06:21:50.519Z,61.24
2022-08-09T06:22:49.466Z,61.34
2022-08-09T06:23:58.890Z,61.24
2022-08-09T06:24:49.472Z,61.34
2022-08-09T06:25:49.192Z,61.65
2022-08-09T06:26:48.413Z,61.24
2022-08-09T06:27:51.463Z,60.84
2022-08-09T06:28:48.871Z,59.10
2022-08-09T06:29:58.805Z,60.71
2022-08-09T06:30:50.094Z,61.01
2022-08-09T06:32:08.537Z,60.71
2022-08-09T06:33:13.145Z,61.01
2022-08-09T06:33:53.246Z,60.91
2022-08-09T06:34:52.990Z,59.30
2022-08-09T06:35:56.534Z,59.88
2022-08-09T06:36:49.345Z,59.88
2022-08-09T06:37:52.982Z,60.08
2022-08-09T06:38:50.161Z,59.67
2022-08-09T06:39:59.710Z,60.08
2022-08-09T06:40:55.102Z,58.57
2022-08-09T06:42:08.647Z,57.74
2022-08-09T06:42:49.515Z,56.43
2022-08-09T06:43:48.398Z,55.93
2022-08-09T06:44:51.890Z,55.10
2022-08-09T06:46:07.875Z,55.71
2022-08-09T06:46:49.855Z,55.38
2022-08-09T06:47:49.195Z,54.07
2022-08-09T06:48:49.195Z,53.87
2022-08-09T06:50:13.423Z,53.55
2022-08-09T06:50:49.143Z,52.84
2022-08-09T06:51:48.122Z,53.42
2022-08-09T06:52:48.856Z,52.72
2022-08-09T06:53:49.819Z,52.92
2022-08-09T06:54:48.086Z,52.62
2022-08-09T06:55:48.389Z,52.49
2022-08-09T06:56:48.151Z,52.89
2022-08-09T06:58:03.347Z,52.39
2022-08-09T07:00:49.456Z,51.59
2022-08-09T07:00:57.180Z,51.49
2022-08-09T07:00:58.710Z,51.57
2022-08-09T07:01:54.511Z,51.46
2022-08-09T07:02:49.054Z,51.37
2022-08-09T07:03:52.352Z,50.76
2022-08-09T07:04:49.127Z,50.87
2022-08-09T07:05:58.045Z,50.94
2022-08-09T07:06:53.138Z,50.94
2022-08-09T07:08:00.144Z,50.74
2022-08-09T07:08:49.734Z,50.64
2022-08-09T07:09:53.642Z,50.54
2022-08-09T07:10:48.916Z,50.44
2022-08-09T07:11:53.580Z,50.62
2022-08-09T07:12:57.215Z,50.32
2022-08-09T07:14:05.393Z,50.52
2022-08-09T07:14:50.683Z,49.62
2022-08-09T07:16:36.538Z,50.22
2022-08-09T07:16:55.309Z,50.20
2022-08-09T07:17:52.843Z,49.79
2022-08-09T07:18:50.041Z,50.29
2022-08-09T07:19:48.178Z,49.79
2022-08-09T07:20:47.923Z,49.27
2022-08-09T07:21:56.020Z,49.07
2022-08-09T07:22:53.451Z,48.87
2022-08-09T07:23:57.907Z,49.15
2022-08-09T07:24:49.447Z,49.15
2022-08-09T07:25:47.797Z,49.05
2022-08-09T07:26:50.889Z,49.25
2022-08-09T07:27:53.268Z,48.55
2022-08-09T07:29:08.319Z,48.93
2022-08-09T07:29:48.738Z,48.63
2022-08-09T07:30:47.687Z,47.92
2022-08-09T07:31:48.174Z,47.92
2022-08-09T07:32:47.659Z,47.71
2022-08-09T07:33:52.795Z,47.80
2022-08-09T07:34:48.658Z,46.80
2022-08-09T07:35:54.103Z,46.61
2022-08-09T07:36:48.651Z,46.78
2022-08-09T07:37:48.020Z,46.28
2022-08-09T07:38:55.145Z,46.28
2022-08-09T07:39:48.652Z,45.96
2022-08-09T07:41:00.929Z,45.24
2022-08-09T07:41:48.539Z,45.44
2022-08-09T07:42:47.540Z,44.65
2022-08-09T07:43:49.996Z,44.92
2022-08-09T07:44:52.062Z,44.62
2022-08-09T07:45:48.500Z,44.92
2022-08-09T07:46:47.500Z,44.82
2022-08-09T07:48:00.486Z,44.82
2022-08-09T07:48:59.083Z,44.62
2022-08-09T07:50:04.484Z,44.40
2022-08-09T07:50:53.004Z,44.01
2022-08-09T07:52:04.805Z,43.60
2022-08-09T07:52:48.700Z,44.72
2022-08-09T07:54:05.126Z,43.73
2022-08-09T07:54:51.405Z,43.93
2022-08-09T07:56:06.484Z,44.84
2022-08-09T07:56:49.514Z,45.34
2022-08-09T07:57:47.657Z,44.72
2022-08-09T07:58:47.511Z,44.40
2022-08-09T07:59:52.138Z,43.79
2022-08-09T08:00:58.743Z,43.68
2022-08-09T08:01:53.050Z,43.79
2022-08-09T08:02:48.321Z,43.59
2022-08-09T08:03:47.294Z,43.38
2022-08-09T08:04:48.782Z,43.66
2022-08-09T08:05:57.829Z,43.66
2022-08-09T08:06:56.101Z,43.66
2022-08-09T08:08:43.973Z,43.27
2022-08-09T08:09:03.669Z,42.97
2022-08-09T08:09:53.587Z,42.86
2022-08-09T08:11:03.074Z,42.94
2022-08-09T08:12:09.661Z,43.35
2022-08-09T08:12:48.199Z,43.05
2022-08-09T08:13:56.884Z,42.65
2022-08-09T08:14:48.190Z,42.15
2022-08-09T08:15:47.152Z,42.75
2022-08-09T08:17:00.761Z,42.05
2022-08-09T08:17:53.476Z,42.45
2022-08-09T08:18:48.134Z,42.45
2022-08-09T08:19:47.118Z,42.13
2022-08-09T08:20:47.112Z,42.53
2022-08-09T08:21:52.564Z,42.63
2022-08-09T08:22:48.388Z,42.91
2022-08-09T08:23:56.214Z,41.82
2022-08-09T08:24:49.209Z,42.71
2022-08-09T08:25:48.250Z,42.41
2022-08-09T08:26:55.834Z,41.39
2022-08-09T08:27:49.818Z,41.60
2022-08-09T08:28:47.054Z,40.60
2022-08-09T08:29:49.964Z,40.88
2022-08-09T08:30:47.647Z,40.09
2022-08-09T08:32:03.182Z,40.09
2022-08-09T08:32:53.483Z,39.79
2022-08-09T08:33:52.895Z,39.67
2022-08-09T08:34:47.944Z,39.37
2022-08-09T08:35:59.030Z,39.37
2022-08-09T08:36:47.943Z,40.07
2022-08-09T08:38:02.225Z,39.57
2022-08-09T08:38:47.895Z,38.98
2022-08-09T08:39:47.028Z,39.75
2022-08-09T08:40:49.587Z,38.17
2022-08-09T08:41:51.662Z,39.55
2022-08-09T08:42:47.855Z,39.06
2022-08-09T08:43:46.856Z,39.63
2022-08-09T08:44:46.835Z,38.94
2022-08-09T08:45:51.494Z,38.53
2022-08-09T08:47:02.921Z,37.43
2022-08-09T08:47:47.818Z,37.73
2022-08-09T08:48:51.472Z,37.43
2022-08-09T08:49:49.471Z,37.41
2022-08-09T08:50:49.390Z,36.52
2022-08-09T08:52:01.688Z,37.12
2022-08-09T08:52:57.430Z,36.72
2022-08-09T08:54:03.600Z,37.02
2022-08-09T08:54:47.728Z,38.11
2022-08-09T08:55:46.733Z,37.30
2022-08-09T08:56:46.697Z,36.90
2022-08-09T08:57:56.183Z,38.19
2022-08-09T08:58:47.687Z,37.77
2022-08-09T08:59:49.024Z,36.98
2022-08-09T09:00:47.686Z,36.19
2022-08-09T09:01:52.942Z,36.49
2022-08-09T09:02:50.100Z,37.36
2022-08-09T09:03:49.438Z,35.68
2022-08-09T09:04:52.577Z,36.18
2022-08-09T09:05:59.880Z,35.49
2022-08-09T09:06:47.590Z,35.60
2022-08-09T09:07:46.598Z,35.58
2022-08-09T09:08:52.575Z,35.49
2022-08-09T09:10:01.963Z,35.49
2022-08-09T09:10:47.605Z,34.38
2022-08-09T09:11:46.649Z,33.59
2022-08-09T09:12:46.539Z,33.49
2022-08-09T09:13:56.526Z,33.98
2022-08-09T09:14:47.551Z,36.16
2022-08-09T09:15:49.249Z,35.76
2022-08-09T09:16:46.501Z,34.38
2022-08-09T09:17:49.294Z,34.97
2022-08-09T09:18:54.875Z,34.38
2022-08-09T09:19:47.491Z,33.89
2022-08-09T09:20:46.460Z,33.39
2022-08-09T09:21:46.893Z,33.69
2022-08-09T09:22:46.424Z,34.28
2022-08-09T09:23:57.320Z,35.86
2022-08-09T09:24:47.427Z,34.08
2022-08-09T09:26:03.525Z,36.85
2022-08-09T09:26:47.380Z,34.88
2022-08-09T09:28:05.211Z,36.04
2022-08-09T09:29:03.538Z,32.67
2022-08-09T09:30:14.063Z,34.36
2022-08-09T09:30:47.495Z,32.98
2022-08-09T09:32:06.062Z,33.47
2022-08-09T09:32:47.301Z,33.28
2022-08-09T09:33:46.349Z,34.27
2022-08-09T09:34:47.311Z,33.97
2022-08-09T09:35:53.078Z,34.06
2022-08-09T09:36:54.017Z,34.06
2022-08-09T09:37:47.270Z,34.05
2022-08-09T09:38:46.223Z,34.25
2022-08-09T09:39:55.056Z,36.52
2022-08-09T09:40:47.214Z,33.36
2022-08-09T09:41:49.042Z,33.25
2022-08-09T09:42:46.575Z,32.95
2022-08-09T09:44:12.760Z,31.88
2022-08-09T09:44:47.162Z,33.46
2022-08-09T09:46:51.998Z,32.06
2022-08-09T09:47:56.241Z,32.35
2022-08-09T09:48:47.172Z,33.64
2022-08-09T09:50:07.293Z,32.26
2022-08-09T09:50:49.672Z,31.96
2022-08-09T09:51:47.834Z,32.24
2022-08-09T09:52:53.735Z,32.34
2022-08-09T09:54:00.938Z,34.01
2022-08-09T09:54:48.824Z,32.73
2022-08-09T09:55:47.424Z,31.93
2022-08-09T09:58:00.925Z,34.49
2022-08-09T09:58:03.710Z,33.49
2022-08-09T09:58:47.025Z,30.93
2022-08-09T09:59:46.035Z,31.13
2022-08-09T10:00:52.761Z,30.52
2022-08-09T10:01:47.388Z,32.60
2022-08-09T10:02:46.050Z,30.72
2022-08-09T10:03:57.588Z,31.41
2022-08-09T10:04:46.998Z,31.90
2022-08-09T10:06:03.703Z,31.10
2022-08-09T10:06:52.023Z,30.31
2022-08-09T10:08:10.945Z,30.49
2022-08-09T10:08:57.225Z,29.90
2022-08-09T10:09:48.754Z,29.51
2022-08-09T10:10:45.895Z,29.90
2022-08-09T10:12:00.527Z,29.72
2022-08-09T10:12:51.845Z,30.71
2022-08-09T10:13:46.846Z,29.82
2022-08-09T10:14:48.581Z,29.62
2022-08-09T10:16:09.198Z,30.71
2022-08-09T10:16:58.345Z,30.10
2022-08-09T10:17:55.902Z,29.71
2022-08-09T10:18:51.305Z,28.41
2022-08-09T10:19:46.826Z,29.00
2022-08-09T10:20:46.766Z,29.51
2022-08-09T10:21:48.642Z,28.03
2022-08-09T10:22:45.821Z,28.92
2022-08-09T10:23:46.667Z,29.13
2022-08-09T10:24:45.748Z,28.93
2022-08-09T10:26:07.497Z,29.13
2022-08-09T10:26:47.657Z,30.21
2022-08-09T10:27:57.946Z,28.64
2022-08-09T10:28:48.732Z,29.13
2022-08-09T10:30:29.980Z,29.52
2022-08-09T10:32:46.906Z,29.51
2022-08-09T10:34:08.870Z,28.81
2022-08-09T10:34:46.668Z,29.21
2022-08-09T10:35:45.626Z,29.80
2022-08-09T10:36:45.620Z,29.79
2022-08-09T10:37:45.619Z,31.45
2022-08-09T10:38:56.281Z,30.35
2022-08-09T10:39:49.298Z,27.98
2022-08-09T10:40:45.592Z,28.77
2022-08-09T10:41:45.626Z,27.98
2022-08-09T10:42:45.873Z,28.27
2022-08-09T10:43:47.071Z,27.78
2022-08-09T10:44:46.536Z,27.40
2022-08-09T10:45:59.986Z,28.97
2022-08-09T10:46:55.057Z,29.06
2022-08-09T10:48:19.315Z,29.63
2022-08-09T10:48:46.463Z,28.93
2022-08-09T10:49:51.339Z,26.27
2022-08-09T10:50:46.433Z,27.07
2022-08-09T10:51:45.433Z,27.57
2022-08-09T10:52:46.413Z,26.90
2022-08-09T10:53:46.661Z,26.03
2022-08-09T10:54:46.381Z,29.68
2022-08-09T10:55:58.235Z,28.59
2022-08-09T10:56:46.364Z,30.56
2022-08-09T10:57:45.363Z,30.65
2022-08-09T10:58:49.484Z,29.16
2022-08-09T10:59:57.875Z,30.04
2022-08-09T11:00:56.833Z,30.12
2022-08-09T11:03:11.853Z,27.36
2022-08-09T11:03:15.242Z,26.40
2022-08-09T11:03:46.956Z,26.90
2022-08-09T11:04:55.553Z,27.09
2022-08-09T11:06:00.635Z,28.57
2022-08-09T11:06:46.254Z,27.01
2022-08-09T11:07:56.891Z,28.20
2022-08-09T11:08:47.267Z,28.79
2022-08-09T11:09:47.628Z,28.50
2022-08-09T11:10:54.335Z,29.48
2022-08-09T11:11:51.903Z,29.27
2022-08-09T11:12:46.195Z,30.43
2022-08-09T11:13:49.938Z,29.34
2022-08-09T11:14:46.193Z,27.55
2022-08-09T11:16:04.466Z,27.34
2022-08-09T11:16:47.099Z,26.55
2022-08-09T11:17:45.155Z,26.54
2022-08-09T11:18:45.224Z,26.44
2022-08-09T11:20:11.229Z,27.23
2022-08-09T11:20:46.104Z,26.25
2022-08-09T11:21:45.139Z,26.65
2022-08-09T11:22:46.120Z,26.84
2022-08-09T11:23:48.857Z,26.45
2022-08-09T11:24:45.057Z,26.86
2022-08-09T11:25:48.455Z,28.23
2022-08-09T11:26:52.156Z,27.94
2022-08-09T11:28:03.714Z,27.55
2022-08-09T11:28:56.171Z,28.71
2022-08-09T11:30:04.338Z,29.00
2022-08-09T11:30:47.982Z,28.30
2022-08-09T11:31:50.385Z,28.68
2022-08-09T11:32:45.966Z,29.17
2022-08-09T11:33:45.396Z,25.44
2022-08-09T11:34:45.768Z,26.42
2022-08-09T11:35:50.151Z,26.42
2022-08-09T11:36:45.939Z,25.73
2022-08-09T11:37:44.937Z,25.93
2022-08-09T11:38:45.936Z,26.90
2022-08-09T11:39:44.940Z,28.57
2022-08-09T11:40:44.887Z,27.29
2022-08-09T11:41:45.829Z,25.83
2022-08-09T11:42:44.962Z,27.98
2022-08-09T11:43:44.877Z,26.33
2022-08-09T11:44:44.857Z,26.04
2022-08-09T11:45:44.922Z,25.38
2022-08-09T11:46:44.818Z,27.04
2022-08-09T11:47:44.818Z,26.56
2022-08-09T11:48:45.178Z,26.67
2022-08-09T11:50:52.306Z,26.87
2022-08-09T11:50:56.199Z,26.59
2022-08-09T11:53:02.028Z,28.57
2022-08-09T11:53:02.499Z,29.66
2022-08-09T11:53:59.355Z,26.74
2022-08-09T11:54:45.739Z,27.56
2022-08-09T11:55:53.331Z,30.52
2022-08-09T11:56:48.240Z,30.62
2022-08-09T11:57:47.649Z,30.80
2022-08-09T11:58:48.183Z,28.93
2022-08-09T11:59:45.101Z,28.05
2022-08-09T12:00:45.660Z,28.34
2022-08-09T12:02:16.205Z,29.03
2022-08-09T12:02:50.934Z,28.93
2022-08-09T12:03:57.311Z,29.03
2022-08-09T12:04:45.740Z,31.79
2022-08-09T12:05:47.244Z,30.02
2022-08-09T12:06:53.023Z,29.21
2022-08-09T12:07:45.631Z,29.71
2022-08-09T12:08:44.610Z,29.39
2022-08-09T12:09:50.536Z,30.47
2022-08-09T12:10:48.293Z,28.58
2022-08-09T12:12:03.626Z,28.88
2022-08-09T12:12:45.576Z,28.09
2022-08-09T12:14:10.542Z,28.29
2022-08-09T12:15:04.162Z,28.39
2022-08-09T12:15:48.801Z,28.20
2022-08-09T12:16:45.684Z,28.40
2022-08-09T12:17:48.899Z,28.79
2022-08-09T12:18:48.994Z,28.40
2022-08-09T12:19:45.491Z,28.89
2022-08-09T12:20:46.572Z,28.00
2022-08-09T12:21:50.273Z,28.50
2022-08-09T12:22:45.433Z,28.58
2022-08-09T12:23:58.117Z,28.67
2022-08-09T12:24:46.176Z,28.67
2022-08-09T12:25:49.251Z,28.55
2022-08-09T12:28:59.182Z,27.55
2022-08-09T12:28:59.683Z,28.64
2022-08-09T12:29:10.891Z,28.25
2022-08-09T12:29:54.664Z,27.63
2022-08-09T12:30:46.115Z,25.88
2022-08-09T12:32:01.818Z,29.03
2022-08-09T12:32:45.474Z,27.26
2022-08-09T12:33:58.528Z,27.17
2022-08-09T12:34:45.323Z,26.48
2022-08-09T12:35:44.309Z,27.45
2022-08-09T12:36:44.286Z,29.41
2022-08-09T12:37:49.982Z,28.51
2022-08-09T12:38:45.255Z,28.69
2022-08-09T12:39:44.265Z,27.80
2022-08-09T12:40:44.236Z,27.00
2022-08-09T12:41:44.227Z,27.88
2022-08-09T12:42:44.223Z,28.26
2022-08-09T12:44:06.705Z,27.77
2022-08-09T12:44:51.985Z,27.58
2022-08-09T12:46:00.113Z,28.18
2022-08-09T12:46:48.795Z,26.51
2022-08-09T12:47:50.327Z,27.10
2022-08-09T12:48:45.588Z,26.43
2022-08-09T12:49:52.942Z,26.82
2022-08-09T12:50:45.868Z,27.42
2022-08-09T12:52:00.787Z,27.34
2022-08-09T12:53:08.974Z,28.13
2022-08-09T12:53:45.173Z,28.53
2022-08-09T12:54:45.107Z,28.15
2022-08-09T12:56:15.185Z,28.15